Time;durP1;ratioP1;P1;durP2;ratioP2;P2;SDS_P1;SDS_P2;PMS_P1;PMS_P2;Temp;Humidity;BMP_temperature;BMP_pressure;BME280_temperature;BME280_humidity;BME280_pressure;Samples;Min_cycle;Max_cycle;Signal;HPM_P1;HPM_P2
2022/03/31 00:00:31;;;;;;;11.05;5.22;;;;;;;8.10;38.64;100124.81;4831437;29;98457;-69
2022/03/31 00:02:58;;;;;;;18.30;5.50;;;;;;;7.91;39.07;100127.22;4835317;29;99140;-70
2022/03/31 00:05:24;;;;;;;10.65;5.22;;;;;;;7.77;38.87;100125.06;4832772;29;97025;-71
2022/03/31 00:07:52;;;;;;;8.10;5.15;;;;;;;7.74;39.08;100121.69;4834955;29;97022;-69
2022/03/31 00:10:24;;;;;;;8.27;5.05;;;;;;;7.83;38.96;100129.25;4832358;29;98270;-71
2022/03/31 00:12:51;;;;;;;13.60;5.22;;;;;;;7.78;38.52;100125.94;4834971;29;101862;-70
2022/03/31 00:15:18;;;;;;;16.90;4.90;;;;;;;7.27;39.66;100137.25;4833598;29;97077;-69
2022/03/31 00:17:46;;;;;;;11.90;5.32;;;;;;;7.37;39.66;100133.41;4834269;29;96893;-72
2022/03/31 00:20:13;;;;;;;11.23;5.00;;;;;;;7.63;39.46;100132.56;4833660;29;98935;-71
2022/03/31 00:22:41;;;;;;;10.73;4.90;;;;;;;7.50;39.08;100139.97;4831493;29;99291;-70
2022/03/31 00:25:08;;;;;;;16.85;5.38;;;;;;;7.51;39.22;100139.06;4832458;29;97278;-70
2022/03/31 00:27:35;;;;;;;13.05;5.32;;;;;;;7.99;38.24;100127.84;4830689;29;98728;-69
2022/03/31 00:30:02;;;;;;;12.07;5.03;;;;;;;7.16;39.60;100136.69;4834992;29;97852;-71
2022/03/31 00:32:29;;;;;;;9.85;4.50;;;;;;;7.24;39.74;100139.97;4834428;29;96779;-70
2022/03/31 00:34:56;;;;;;;7.57;4.57;;;;;;;7.08;39.57;100136.09;4834247;29;99140;-70
2022/03/31 00:37:23;;;;;;;18.70;5.22;;;;;;;7.59;38.75;100130.94;4833419;29;96800;-69
2022/03/31 00:39:50;;;;;;;13.88;5.05;;;;;;;6.73;40.58;100132.75;4833443;29;100000;-69
2022/03/31 00:42:17;;;;;;;8.73;4.65;;;;;;;7.03;39.54;100135.34;4833592;29;98840;-69
2022/03/31 00:44:44;;;;;;;11.73;4.75;;;;;;;7.22;39.31;100132.13;4829804;29;97075;-69
2022/03/31 00:47:11;;;;;;;15.38;4.88;;;;;;;7.01;39.40;100135.44;4830970;29;97789;-69
2022/03/31 00:49:37;;;;;;;10.10;4.60;;;;;;;7.53;38.62;100125.91;4831232;29;99025;-69
2022/03/31 00:52:06;;;;;;;11.82;4.50;;;;;;;7.31;38.90;100136.22;4832983;29;99007;-70
2022/03/31 00:54:34;;;;;;;9.55;4.07;;;;;;;7.18;38.89;100125.25;4829060;29;98907;-70
2022/03/31 00:57:03;;;;;;;11.50;4.78;;;;;;;7.16;38.94;100123.56;4834876;29;96892;-71
2022/03/31 00:59:31;;;;;;;10.27;5.40;;;;;;;7.24;38.54;100132.06;4831003;29;97474;-70
2022/03/31 01:01:59;;;;;;;7.57;4.55;;;;;;;7.23;38.59;100127.72;4831420;29;99377;-69
2022/03/31 01:04:27;;;;;;;11.95;4.65;;;;;;;7.46;37.83;100124.38;4830939;29;97020;-71
2022/03/31 01:06:55;;;;;;;10.27;4.93;;;;;;;6.84;39.28;100131.56;4831375;29;96872;-71
2022/03/31 01:09:23;;;;;;;12.70;4.72;;;;;;;7.05;38.82;100123.91;4831366;29;101379;-70
2022/03/31 01:11:51;;;;;;;8.65;4.82;;;;;;;7.12;38.56;100125.44;4835256;29;98237;-69
2022/03/31 01:14:17;;;;;;;10.95;4.57;;;;;;;7.43;38.19;100130.56;4832082;29;96797;-70
2022/03/31 01:16:44;;;;;;;10.13;4.68;;;;;;;7.11;38.00;100122.84;4834066;29;96895;-70
2022/03/31 01:19:12;;;;;;;9.65;4.60;;;;;;;7.17;38.31;100122.66;4833872;29;99223;-70
2022/03/31 01:21:40;;;;;;;11.18;5.00;;;;;;;6.66;39.30;100128.59;4830250;29;97725;-69
2022/03/31 01:24:10;;;;;;;15.05;4.78;;;;;;;6.83;38.59;100125.47;4832077;29;99564;-70
2022/03/31 01:26:39;;;;;;;10.23;4.18;;;;;;;6.88;38.58;100133.22;4831359;29;96997;-70
2022/03/31 01:29:06;;;;;;;13.75;4.30;;;;;;;7.48;37.86;100128.66;4830292;29;99965;-69
2022/03/31 01:31:32;;;;;;;11.70;4.50;;;;;;;7.24;37.76;100131.22;4824453;29;99316;-72
2022/03/31 01:33:59;;;;;;;8.65;4.63;;;;;;;6.96;38.67;100139.94;4833693;29;97321;-70
2022/03/31 01:36:26;;;;;;;8.93;4.75;;;;;;;6.91;38.93;100128.72;4832545;29;97240;-71
2022/03/31 01:38:55;;;;;;;13.15;6.40;;;;;;;7.09;38.34;100124.66;4832919;29;99172;-70
2022/03/31 01:41:23;;;;;;;8.98;4.70;;;;;;;7.04;38.51;100137.09;4831048;29;99261;-70
2022/03/31 01:43:50;;;;;;;12.48;4.75;;;;;;;6.38;39.70;100136.41;4829904;29;96780;-70
2022/03/31 01:46:16;;;;;;;11.25;4.35;;;;;;;6.18;39.73;100135.22;4831845;29;96803;-69
2022/03/31 01:48:43;;;;;;;6.80;4.13;;;;;;;6.48;39.46;100130.91;4831187;29;97859;-69
2022/03/31 01:51:09;;;;;;;8.10;4.32;;;;;;;6.06;40.49;100138.19;4831656;29;99354;-70
2022/03/31 01:53:38;;;;;;;12.30;4.55;;;;;;;5.99;40.61;100135.72;4832139;29;96798;-70
2022/03/31 01:56:06;;;;;;;8.05;4.32;;;;;;;6.39;39.32;100137.25;4829289;29;97205;-71
2022/03/31 01:58:34;;;;;;;13.85;4.40;;;;;;;6.29;39.80;100135.81;4831524;29;99248;-70
2022/03/31 02:01:01;;;;;;;7.78;4.18;;;;;;;6.16;40.31;100137.91;4831025;29;98805;-71
2022/03/31 02:03:28;;;;;;;12.98;4.60;;;;;;;6.46;39.12;100141.44;4834146;29;97402;-71
2022/03/31 02:05:55;;;;;;;10.93;4.10;;;;;;;6.47;39.03;100137.91;4833926;29;97143;-70
2022/03/31 02:08:22;;;;;;;8.15;3.80;;;;;;;6.25;39.75;100145.50;4827172;29;99841;-71
2022/03/31 02:10:49;;;;;;;11.18;4.50;;;;;;;6.18;39.78;100127.34;4830676;29;97537;-70
2022/03/31 02:13:16;;;;;;;7.00;4.00;;;;;;;6.13;39.74;100142.34;4828759;29;98559;-71
2022/03/31 02:15:44;;;;;;;7.00;4.07;;;;;;;6.21;39.85;100143.03;4833881;29;97374;-71
2022/03/31 02:18:11;;;;;;;6.60;3.70;;;;;;;6.07;39.64;100132.91;4827409;29;99259;-70
2022/03/31 02:20:38;;;;;;;11.98;3.83;;;;;;;5.81;40.76;100138.78;4833999;29;99052;-70
2022/03/31 02:23:05;;;;;;;9.80;4.18;;;;;;;6.12;39.99;100132.75;4833281;29;96835;-70
2022/03/31 02:25:34;;;;;;;8.68;4.38;;;;;;;6.00;39.61;100139.19;4831018;29;98057;-70
2022/03/31 02:28:01;;;;;;;11.05;4.13;;;;;;;6.14;39.85;100141.47;4831740;29;101404;-70
2022/03/31 02:30:28;;;;;;;10.88;3.90;;;;;;;5.82;40.59;100142.28;4830563;29;98864;-71
2022/03/31 02:32:56;;;;;;;8.15;4.20;;;;;;;6.10;40.17;100138.06;4833668;29;96874;-71
2022/03/31 02:35:23;;;;;;;8.27;3.40;;;;;;;6.02;39.81;100141.78;4832517;29;97998;-71
2022/03/31 02:37:49;;;;;;;10.13;3.97;;;;;;;6.13;39.23;100142.34;4829902;29;98296;-70
2022/03/31 02:40:16;;;;;;;8.10;3.78;;;;;;;5.81;40.22;100145.78;4830538;29;101349;-72
2022/03/31 02:42:43;;;;;;;8.02;3.83;;;;;;;5.46;41.08;100152.75;4831922;29;99135;-71
2022/03/31 02:45:10;;;;;;;6.65;3.70;;;;;;;5.15;41.50;100149.16;4831043;29;96871;-72
2022/03/31 02:47:36;;;;;;;9.15;3.85;;;;;;;5.44;40.83;100145.84;4831416;29;98761;-71
2022/03/31 02:55:38;;;;;;;10.88;4.10;;;;;;;5.04;40.79;100145.91;4836022;29;96869;-70
2022/03/31 02:58:06;;;;;;;10.98;4.47;;;;;;;4.65;42.29;100148.50;4833034;29;97111;-71
2022/03/31 03:00:35;;;;;;;10.55;4.05;;;;;;;5.10;41.55;100146.66;4833985;29;99526;-72
2022/03/31 03:03:03;;;;;;;7.22;3.63;;;;;;;5.63;39.91;100144.50;4836330;29;97606;-72
2022/03/31 03:05:32;;;;;;;9.63;3.97;;;;;;;5.34;40.75;100153.06;4837138;29;97044;-73
2022/03/31 03:07:58;;;;;;;9.50;3.70;;;;;;;5.65;40.41;100147.06;4836060;29;99064;-72
2022/03/31 03:10:25;;;;;;;7.65;4.30;;;;;;;5.44;40.65;100146.72;4835062;29;98885;-71
2022/03/31 03:12:51;;;;;;;8.90;3.65;;;;;;;5.41;40.61;100140.69;4833628;29;97536;-71
2022/03/31 03:15:18;;;;;;;8.77;3.90;;;;;;;5.13;40.91;100143.94;4833665;29;97697;-71
2022/03/31 03:17:47;;;;;;;6.57;3.47;;;;;;;4.89;41.72;100144.50;4831471;29;98919;-72
2022/03/31 03:20:16;;;;;;;7.05;3.45;;;;;;;5.16;41.13;100143.88;4832567;29;99954;-72
2022/03/31 03:22:46;;;;;;;10.00;3.90;;;;;;;5.52;40.21;100144.75;4835955;29;96899;-72
2022/03/31 03:25:15;;;;;;;9.90;4.13;;;;;;;5.17;41.17;100145.59;4834753;29;97113;-72
2022/03/31 03:27:42;;;;;;;7.80;4.10;;;;;;;5.37;39.80;100142.53;4835192;29;99420;-71
2022/03/31 03:30:09;;;;;;;10.80;4.38;;;;;;;5.20;40.39;100145.53;4836159;29;99148;-71
2022/03/31 03:32:37;;;;;;;12.43;3.88;;;;;;;5.30;40.82;100146.19;4833147;29;97520;-70
2022/03/31 03:35:04;;;;;;;9.27;4.35;;;;;;;4.89;41.52;100138.41;4834677;29;97913;-70
2022/03/31 03:37:30;;;;;;;8.63;3.80;;;;;;;4.88;41.25;100142.78;4832130;29;101471;-69
2022/03/31 03:39:58;;;;;;;13.63;4.63;;;;;;;5.43;39.67;100141.50;4832965;29;97866;-70
2022/03/31 03:42:25;;;;;;;7.13;3.22;;;;;;;5.40;39.55;100138.94;4834958;29;97436;-70
2022/03/31 03:44:51;;;;;;;14.55;4.38;;;;;;;5.42;39.79;100132.78;4835664;29;97589;-70
2022/03/31 03:47:18;;;;;;;11.77;3.97;;;;;;;5.01;40.98;100138.97;4834198;29;98959;-71
2022/03/31 03:49:44;;;;;;;6.93;3.60;;;;;;;4.70;41.21;100143.16;4833676;29;98982;-71
2022/03/31 03:52:11;;;;;;;9.82;4.00;;;;;;;4.89;40.72;100131.41;4832751;29;97313;-70
2022/03/31 03:54:38;;;;;;;10.43;3.65;;;;;;;4.39;41.71;100130.72;4833180;29;96923;-70
2022/03/31 03:57:06;;;;;;;9.32;3.58;;;;;;;4.31;41.75;100126.53;4835921;29;99368;-71
2022/03/31 03:59:33;;;;;;;8.70;4.28;;;;;;;4.64;40.93;100127.59;4833756;29;99052;-70
2022/03/31 04:02:01;;;;;;;8.82;3.95;;;;;;;4.09;42.26;100133.06;4834293;29;99394;-70
2022/03/31 04:04:29;;;;;;;12.38;4.72;;;;;;;4.47;41.65;100121.84;4834665;29;97222;-70
2022/03/31 04:06:56;;;;;;;7.22;3.42;;;;;;;4.77;40.88;100129.06;4832816;29;101875;-70
2022/03/31 04:09:22;;;;;;;9.88;3.55;;;;;;;4.62;41.20;100119.78;4835649;29;98006;-69
2022/03/31 04:11:49;;;;;;;10.63;3.63;;;;;;;4.71;40.41;100121.34;4831165;29;96827;-70
2022/03/31 04:14:18;;;;;;;7.38;3.58;;;;;;;5.01;40.23;100122.41;4835771;29;96945;-72
2022/03/31 04:16:45;;;;;;;5.13;2.85;;;;;;;4.82;40.40;100116.72;4826686;29;99360;-69
2022/03/31 04:19:11;;;;;;;5.50;3.20;;;;;;;5.05;40.34;100126.69;4833970;29;99556;-69
2022/03/31 04:21:39;;;;;;;10.48;4.10;;;;;;;4.87;40.33;100125.34;4829345;29;96939;-70
2022/03/31 04:24:06;;;;;;;8.10;3.58;;;;;;;5.06;39.87;100121.41;4833736;29;96859;-69
2022/03/31 04:26:33;;;;;;;8.60;3.38;;;;;;;4.85;40.29;100124.53;4831952;29;99441;-70
2022/03/31 04:29:01;;;;;;;5.90;3.17;;;;;;;4.70;41.14;100119.63;4835925;29;97532;-70
2022/03/31 04:31:29;;;;;;;6.35;3.40;;;;;;;5.45;39.78;100118.72;4833743;29;97002;-70
2022/03/31 04:33:55;;;;;;;9.30;3.17;;;;;;;5.29;39.55;100122.63;4834023;29;98441;-69
2022/03/31 04:36:22;;;;;;;9.95;3.03;;;;;;;5.02;39.91;100125.00;4834435;29;101442;-70
2022/03/31 04:38:48;;;;;;;7.50;3.20;;;;;;;4.45;41.03;100126.25;4835462;29;99294;-71
2022/03/31 04:41:15;;;;;;;6.07;3.13;;;;;;;4.49;40.68;100120.94;4830716;29;96917;-70
2022/03/31 04:43:41;;;;;;;6.60;2.70;;;;;;;4.51;40.70;100128.75;4832944;29;97049;-70
2022/03/31 04:46:08;;;;;;;7.00;3.35;;;;;;;4.74;40.54;100129.97;4833294;29;98916;-70
2022/03/31 04:48:36;;;;;;;7.25;3.30;;;;;;;4.24;41.74;100128.41;4833448;29;100796;-69
2022/03/31 04:51:03;;;;;;;8.98;3.17;;;;;;;4.09;41.82;100127.81;4830540;29;96968;-71
2022/03/31 04:53:30;;;;;;;10.65;3.72;;;;;;;4.16;41.96;100138.16;4834642;29;97029;-71
2022/03/31 04:55:56;;;;;;;6.72;3.13;;;;;;;3.91;42.21;100137.75;4832760;29;101683;-70
2022/03/31 04:58:23;;;;;;;8.75;3.00;;;;;;;4.13;41.77;100137.34;4833613;29;97791;-69
2022/03/31 05:00:50;;;;;;;8.55;3.55;;;;;;;4.19;41.92;100143.34;4835163;29;96851;-70
2022/03/31 05:03:17;;;;;;;7.18;2.72;;;;;;;3.91;42.55;100139.50;4835392;29;97586;-70
2022/03/31 05:05:49;;;;;;;4.82;2.80;;;;;;;3.68;43.04;100136.41;4834361;29;97085;-70
2022/03/31 05:08:19;;;;;;;7.00;3.28;;;;;;;4.38;41.01;100133.38;4831774;29;99652;-69
2022/03/31 05:10:46;;;;;;;8.10;3.10;;;;;;;4.22;41.56;100134.53;4833689;29;97348;-69
2022/03/31 05:13:18;;;;;;;7.43;3.13;;;;;;;3.72;42.55;100143.31;4833774;29;97780;-70
2022/03/31 05:15:52;;;;;;;10.50;3.08;;;;;;;3.69;42.45;100148.59;4833382;29;99199;-70
2022/03/31 05:18:19;;;;;;;9.38;3.22;;;;;;;3.50;43.25;100150.66;4830761;29;98750;-70
2022/03/31 05:20:53;;;;;;;9.93;3.00;;;;;;;4.00;42.16;100141.97;4832969;29;99123;-70
2022/03/31 05:23:20;;;;;;;9.13;3.13;;;;;;;4.51;41.32;100147.06;4829173;29;98814;-73
2022/03/31 05:25:47;;;;;;;8.23;3.17;;;;;;;4.52;41.15;100160.13;4828063;29;100994;-71
2022/03/31 05:28:15;;;;;;;7.60;2.75;;;;;;;4.27;41.59;100164.94;4833336;29;98174;-71
2022/03/31 05:30:43;;;;;;;8.90;2.95;;;;;;;4.68;40.57;100152.81;4829957;29;97704;-71
2022/03/31 05:33:17;;;;;;;7.35;3.10;;;;;;;4.00;41.90;100152.41;4832412;29;97520;-70
2022/03/31 05:35:51;;;;;;;13.20;3.10;;;;;;;4.19;42.03;100161.63;4831464;29;97665;-73
2022/03/31 05:38:17;;;;;;;9.68;3.15;;;;;;;3.52;42.94;100152.38;4833989;29;97519;-72
2022/03/31 05:40:46;;;;;;;7.30;3.03;;;;;;;4.03;42.43;100157.56;4832120;29;97205;-70
2022/03/31 05:43:13;;;;;;;4.38;2.75;;;;;;;3.57;43.43;100145.31;4831806;29;96935;-70
2022/03/31 05:45:40;;;;;;;7.45;3.33;;;;;;;3.46;43.59;100147.25;4830720;29;99628;-70
2022/03/31 05:48:07;;;;;;;7.00;2.80;;;;;;;3.44;43.38;100149.00;4832700;29;99306;-70
2022/03/31 05:50:33;;;;;;;9.10;2.70;;;;;;;3.46;43.50;100143.75;4833848;29;96828;-71
2022/03/31 05:53:02;;;;;;;10.85;4.78;;;;;;;4.01;42.72;100146.28;4829295;29;96947;-71
2022/03/31 05:55:32;;;;;;;8.18;3.00;;;;;;;4.13;41.88;100150.44;4833368;29;99025;-70
2022/03/31 05:57:59;;;;;;;8.05;2.97;;;;;;;4.27;41.76;100151.88;4831020;29;101464;-70
2022/03/31 06:00:26;;;;;;;8.95;3.00;;;;;;;4.74;40.73;100150.06;4828971;29;96833;-70
2022/03/31 06:02:56;;;;;;;7.13;3.38;;;;;;;4.38;41.41;100159.53;4833567;29;96838;-70
2022/03/31 06:05:23;;;;;;;10.13;3.20;;;;;;;4.49;40.62;100161.91;4830572;29;101925;-71
2022/03/31 06:07:51;;;;;;;7.35;2.95;;;;;;;4.02;42.05;100171.53;4832619;29;100536;-71
2022/03/31 06:10:31;;;;;;;14.80;3.55;;;;;;;4.45;41.42;100163.75;4831646;29;96997;-70
2022/03/31 06:13:01;;;;;;;7.43;3.20;;;;;;;4.50;41.19;100168.88;4831511;29;96857;-70
2022/03/31 06:15:29;;;;;;;10.98;2.80;;;;;;;4.09;42.02;100169.66;4832378;29;101548;-71
2022/03/31 06:17:57;;;;;;;7.63;3.22;;;;;;;3.92;42.08;100164.75;4830644;29;99579;-69
2022/03/31 06:20:24;;;;;;;6.65;3.22;;;;;;;3.76;42.70;100158.91;4824070;29;97463;-70
2022/03/31 06:22:51;;;;;;;9.90;3.25;;;;;;;3.43;43.42;100169.91;4829062;29;97198;-71
2022/03/31 06:25:26;;;;;;;6.90;3.20;;;;;;;4.09;42.32;100162.69;4827206;29;100432;-70
2022/03/31 06:27:53;;;;;;;10.88;3.28;;;;;;;4.33;42.10;100164.81;4831086;29;99077;-69
2022/03/31 06:30:25;;;;;;;10.70;3.85;;;;;;;4.18;42.50;100159.03;4830619;29;97309;-69
2022/03/31 06:32:52;;;;;;;7.35;3.35;;;;;;;4.32;41.60;100160.50;4832114;29;96913;-69
2022/03/31 06:35:20;;;;;;;12.45;3.45;;;;;;;4.18;41.99;100159.03;4827321;29;100845;-71
2022/03/31 06:37:48;;;;;;;10.15;3.63;;;;;;;4.40;41.52;100161.19;4831822;29;101402;-69
2022/03/31 06:40:18;;;;;;;10.13;3.67;;;;;;;4.92;40.74;100160.16;4831473;29;96834;-70
2022/03/31 06:42:47;;;;;;;12.15;3.40;;;;;;;5.09;39.87;100167.63;4831310;29;96843;-71
2022/03/31 06:45:16;;;;;;;7.43;3.40;;;;;;;5.19;39.80;100169.13;4830839;29;101459;-70
2022/03/31 06:47:42;;;;;;;5.93;3.50;;;;;;;5.31;39.38;100162.75;4835071;29;97598;-70
2022/03/31 06:50:10;;;;;;;6.97;3.15;;;;;;;5.12;39.37;100175.44;4833848;29;97253;-70
2022/03/31 06:52:38;;;;;;;11.77;3.03;;;;;;;4.99;39.40;100177.41;4833681;29;96781;-71
2022/03/31 06:55:05;;;;;;;9.25;3.47;;;;;;;4.78;39.99;100183.13;4835357;29;100604;-70
2022/03/31 06:57:32;;;;;;;14.35;3.78;;;;;;;5.15;39.47;100177.97;4829868;29;98915;-69
2022/03/31 07:00:00;;;;;;;15.95;5.97;;;;;;;5.34;39.12;100188.88;4831219;29;96818;-72
2022/03/31 07:02:26;;;;;;;12.48;4.38;;;;;;;6.00;37.74;100171.53;4828234;29;98590;-70
2022/03/31 07:04:53;;;;;;;10.55;4.05;;;;;;;5.90;37.83;100172.69;4823690;29;97933;-70
2022/03/31 07:07:20;;;;;;;9.45;3.40;;;;;;;5.86;37.35;100176.25;4827150;29;101872;-71
2022/03/31 07:09:47;;;;;;;7.85;3.67;;;;;;;6.37;37.15;100168.78;4829107;29;97776;-70
2022/03/31 07:12:13;;;;;;;8.38;3.90;;;;;;;5.51;37.89;100177.09;4828167;29;97289;-69
2022/03/31 07:14:40;;;;;;;14.55;4.38;;;;;;;5.73;37.67;100176.56;4827029;29;97125;-70
2022/03/31 07:17:08;;;;;;;13.00;4.35;;;;;;;5.39;38.75;100171.28;4827497;29;99638;-69
2022/03/31 07:19:35;;;;;;;10.52;3.88;;;;;;;5.75;37.60;100167.78;4828606;29;97567;-69
2022/03/31 07:22:03;;;;;;;11.48;4.80;;;;;;;5.91;37.70;100169.13;4829091;29;97404;-70
2022/03/31 07:24:30;;;;;;;9.45;3.83;;;;;;;5.75;38.38;100170.41;4829536;29;98127;-70
2022/03/31 07:26:56;;;;;;;15.20;4.78;;;;;;;6.48;36.92;100165.88;4826371;29;98717;-69
2022/03/31 07:29:23;;;;;;;10.30;4.32;;;;;;;6.26;36.70;100162.97;4827967;29;96854;-70
2022/03/31 07:31:50;;;;;;;21.05;3.92;;;;;;;5.73;37.67;100159.09;4827341;29;97170;-69
2022/03/31 07:34:34;;;;;;;4.97;3.10;;;;;;;6.45;36.59;100155.44;4826634;29;98991;-70
2022/03/31 07:37:00;;;;;;;7.60;4.57;;;;;;;6.36;36.54;100153.09;4827637;29;98540;-71
2022/03/31 07:39:30;;;;;;;12.90;3.72;;;;;;;6.83;35.80;100149.09;4831926;29;98866;-70
2022/03/31 07:41:57;;;;;;;13.85;4.05;;;;;;;7.48;34.71;100144.41;4830799;29;97101;-70
2022/03/31 07:44:24;;;;;;;11.38;3.65;;;;;;;6.31;36.74;100149.72;4829823;29;99231;-69
2022/03/31 07:46:52;;;;;;;9.88;4.03;;;;;;;6.67;36.14;100148.69;4831288;29;99016;-69
2022/03/31 07:49:21;;;;;;;7.82;3.67;;;;;;;6.36;36.86;100145.22;4830902;29;97706;-70
2022/03/31 07:51:50;;;;;;;9.85;3.83;;;;;;;6.66;35.97;100152.22;4830501;29;97385;-70
2022/03/31 07:54:21;;;;;;;9.68;4.30;;;;;;;7.32;35.24;100152.84;4830123;29;101232;-70
2022/03/31 07:56:53;;;;;;;8.38;3.88;;;;;;;7.52;34.51;100139.94;4834736;29;97548;-69
2022/03/31 07:59:23;;;;;;;7.38;3.95;;;;;;;7.87;33.79;100141.41;4834824;29;97778;-69
2022/03/31 08:01:50;;;;;;;15.52;4.15;;;;;;;7.28;34.96;100144.22;4831249;29;97002;-69
2022/03/31 08:04:18;;;;;;;9.23;3.80;;;;;;;7.35;34.82;100145.72;4823488;29;99432;-70
2022/03/31 08:06:45;;;;;;;11.20;4.15;;;;;;;7.08;35.48;100150.09;4826190;29;98229;-70
2022/03/31 08:09:15;;;;;;;23.48;5.93;;;;;;;7.14;34.61;100151.69;4832938;29;97193;-69
2022/03/31 08:11:43;;;;;;;14.63;5.20;;;;;;;7.51;34.48;100143.47;4831943;29;97436;-70
2022/03/31 08:14:16;;;;;;;9.70;4.07;;;;;;;7.58;34.42;100145.00;4828195;29;102065;-69
2022/03/31 08:16:50;;;;;;;11.63;3.63;;;;;;;8.84;32.45;100152.84;4826536;29;98904;-69
2022/03/31 08:19:22;;;;;;;13.65;4.55;;;;;;;8.46;32.37;100133.22;4833495;29;97973;-69
2022/03/31 08:21:52;;;;;;;11.85;3.45;;;;;;;7.88;33.55;100143.97;4830905;29;97838;-70
2022/03/31 08:24:23;;;;;;;9.27;4.10;;;;;;;7.99;33.50;100143.63;4831196;29;99294;-69
2022/03/31 08:26:59;;;;;;;7.93;4.07;;;;;;;8.09;33.50;100136.25;4830800;29;100429;-69
2022/03/31 08:29:26;;;;;;;9.53;3.97;;;;;;;7.63;33.77;100132.56;4833273;29;97307;-69
2022/03/31 08:31:53;;;;;;;12.93;4.07;;;;;;;7.49;34.32;100147.91;4835307;29;97018;-70
2022/03/31 08:34:23;;;;;;;9.43;4.28;;;;;;;7.91;34.19;100143.00;4829574;29;98546;-70
2022/03/31 08:36:49;;;;;;;9.00;3.80;;;;;;;8.58;32.55;100145.94;4825343;29;99352;-70
2022/03/31 08:39:16;;;;;;;12.65;4.40;;;;;;;8.97;32.06;100144.44;4834461;29;97334;-69
2022/03/31 08:41:44;;;;;;;11.82;4.55;;;;;;;8.82;31.93;100137.09;4835180;29;98023;-70
2022/03/31 08:44:12;;;;;;;13.13;4.05;;;;;;;8.89;32.09;100140.38;4834933;29;99897;-71
2022/03/31 08:46:39;;;;;;;10.95;4.50;;;;;;;9.08;31.88;100136.09;4832270;29;101713;-70
2022/03/31 08:49:12;;;;;;;6.65;3.78;;;;;;;9.02;31.61;100149.50;4832709;29;96832;-70
2022/03/31 08:51:40;;;;;;;10.70;3.78;;;;;;;8.87;31.51;100137.78;4835275;29;97063;-69
2022/03/31 08:54:08;;;;;;;10.48;4.72;;;;;;;9.12;31.66;100141.19;4832711;29;99643;-68
2022/03/31 08:56:34;;;;;;;9.13;3.58;;;;;;;10.02;30.41;100141.91;4832552;29;97881;-71
2022/03/31 08:59:08;;;;;;;15.95;4.70;;;;;;;9.17;31.12;100146.28;4833927;29;97752;-72
2022/03/31 09:01:38;;;;;;;6.57;3.58;;;;;;;9.39;31.09;100143.66;4831720;29;97413;-72
2022/03/31 09:04:05;;;;;;;7.88;4.10;;;;;;;8.45;32.25;100135.00;4832334;29;98449;-72
2022/03/31 09:06:31;;;;;;;12.80;3.78;;;;;;;8.86;32.07;100129.97;4832868;29;97737;-71
2022/03/31 09:09:00;;;;;;;10.40;4.05;;;;;;;9.00;31.79;100123.22;4831428;29;96776;-72
2022/03/31 09:11:30;;;;;;;6.93;3.88;;;;;;;8.34;32.92;100129.22;4835128;29;96838;-72
2022/03/31 09:13:58;;;;;;;10.70;4.20;;;;;;;8.33;33.28;100130.16;4831707;29;99282;-72
2022/03/31 09:16:36;;;;;;;17.33;4.35;;;;;;;7.92;34.06;100124.56;4829966;29;98953;-75
2022/03/31 09:19:11;;;;;;;12.57;5.18;;;;;;;8.90;32.83;100131.53;4829172;29;97359;-72
2022/03/31 09:21:52;;;;;;;7.40;4.60;;;;;;;8.57;33.24;100133.66;4833832;29;98679;-72
2022/03/31 09:24:22;;;;;;;8.35;4.43;;;;;;;8.89;32.60;100141.22;4833514;29;97718;-72
2022/03/31 09:26:53;;;;;;;9.70;4.15;;;;;;;8.79;32.52;100134.59;4830305;29;98074;-72
2022/03/31 09:29:23;;;;;;;7.43;4.07;;;;;;;8.37;33.39;100143.16;4831822;29;96671;-72
2022/03/31 09:32:05;;;;;;;11.80;4.22;;;;;;;8.87;32.94;100140.41;4832105;29;97376;-72
2022/03/31 09:34:42;;;;;;;12.13;4.30;;;;;;;8.87;32.81;100137.78;4830133;29;102294;-73
2022/03/31 09:37:12;;;;;;;13.80;4.53;;;;;;;9.13;32.06;100131.50;4833991;29;98422;-72
2022/03/31 09:39:43;;;;;;;11.75;4.30;;;;;;;8.80;32.69;100126.63;4833408;29;96838;-72
2022/03/31 09:42:12;;;;;;;12.90;4.35;;;;;;;8.77;32.97;100136.41;4831660;29;97417;-74
2022/03/31 09:44:42;;;;;;;26.20;4.45;;;;;;;9.04;32.52;100123.97;4834481;29;98461;-72
2022/03/31 09:47:10;;;;;;;20.23;4.85;;;;;;;8.36;33.69;100136.16;4834961;29;100448;-72
2022/03/31 09:49:37;;;;;;;15.35;4.63;;;;;;;9.09;32.92;100130.78;4834893;29;96777;-74
2022/03/31 09:52:07;;;;;;;10.63;4.35;;;;;;;9.42;32.46;100125.06;4834464;29;96946;-72
2022/03/31 09:54:35;;;;;;;13.52;4.15;;;;;;;9.52;32.13;100119.34;4833878;29;101204;-71
2022/03/31 09:57:03;;;;;;;24.40;4.43;;;;;;;9.27;32.62;100128.31;4833009;29;97530;-78
2022/03/31 09:59:31;;;;;;;10.27;4.32;;;;;;;8.66;33.50;100130.72;4834386;29;96931;-71
2022/03/31 10:02:04;;;;;;;14.38;4.50;;;;;;;8.91;33.33;100126.22;4834812;29;96843;-72
2022/03/31 10:04:34;;;;;;;7.32;4.55;;;;;;;9.69;32.53;100116.03;4832057;29;98044;-72
2022/03/31 10:07:02;;;;;;;7.63;4.47;;;;;;;10.02;31.84;100110.25;4831988;29;98052;-72
2022/03/31 10:09:32;;;;;;;18.80;4.47;;;;;;;9.63;32.01;100113.66;4832176;29;97689;-73
2022/03/31 10:12:09;;;;;;;13.05;4.10;;;;;;;9.89;31.43;100110.78;4833717;29;96937;-73
2022/03/31 10:14:50;;;;;;;9.63;4.47;;;;;;;10.56;30.67;100115.78;4833322;29;99204;-71
2022/03/31 10:17:22;;;;;;;15.68;4.57;;;;;;;11.07;29.67;100104.56;4831732;29;97207;-72
2022/03/31 10:19:50;;;;;;;8.90;4.35;;;;;;;11.04;29.37;100112.63;4833819;29;96801;-72
2022/03/31 10:25:04;;;;;;;8.02;4.35;;;;;;;10.14;31.18;100104.44;4796782;29;97449;-74
2022/03/31 10:27:36;;;;;;;10.70;4.45;;;;;;;10.41;30.89;100107.66;4830431;29;97774;-72
2022/03/31 10:30:17;;;;;;;9.05;4.75;;;;;;;9.75;31.36;100097.31;4830761;29;96839;-72
2022/03/31 10:32:58;;;;;;;10.32;4.38;;;;;;;9.93;31.09;100093.88;4834130;29;96834;-72
2022/03/31 10:35:33;;;;;;;10.98;4.68;;;;;;;9.80;31.38;100086.56;4832478;29;98123;-73
2022/03/31 10:38:15;;;;;;;12.07;4.63;;;;;;;10.72;30.44;100074.50;4830244;29;98181;-72
2022/03/31 10:40:54;;;;;;;10.02;4.40;;;;;;;11.45;29.22;100078.03;4833296;29;97025;-73
2022/03/31 10:43:30;;;;;;;10.10;4.57;;;;;;;10.09;30.98;100080.88;4832695;29;96929;-75
2022/03/31 10:46:04;;;;;;;10.27;4.60;;;;;;;11.33;29.69;100079.50;4830653;29;101281;-73
2022/03/31 10:48:39;;;;;;;11.02;4.80;;;;;;;11.14;29.67;100079.53;4832233;29;96892;-72
2022/03/31 10:51:18;;;;;;;8.93;4.57;;;;;;;11.53;29.25;100078.53;4832241;29;97652;-72
2022/03/31 10:53:55;;;;;;;11.02;5.00;;;;;;;11.12;29.85;100076.09;4832515;29;97293;-72
2022/03/31 10:56:26;;;;;;;;;;;;;;;11.45;29.41;100072.75;4830722;29;98412;-71
2022/03/31 10:58:56;;;;;;;8.60;4.43;;;;;;;11.56;28.88;100076.56;4832772;29;99123;-71
2022/03/31 11:01:26;;;;;;;15.40;4.68;;;;;;;12.13;28.59;100074.56;4834552;29;96993;-72
2022/03/31 11:04:03;;;;;;;10.52;4.38;;;;;;;12.12;28.15;100078.16;4832622;29;96788;-72
2022/03/31 11:06:45;;;;;;;10.30;4.57;;;;;;;11.47;29.04;100073.53;4828768;29;99382;-72
2022/03/31 11:09:20;;;;;;;12.65;5.47;;;;;;;10.62;30.08;100078.50;4830690;29;97683;-72
2022/03/31 11:11:52;;;;;;;12.38;4.95;;;;;;;11.62;28.88;100069.28;4832268;29;97221;-72
2022/03/31 11:14:35;;;;;;;14.18;4.63;;;;;;;12.20;27.88;100069.81;4836303;29;96993;-72
2022/03/31 11:17:02;;;;;;;9.52;4.85;;;;;;;12.69;27.43;100063.56;4831748;29;97739;-71
2022/03/31 11:19:41;;;;;;;13.77;4.30;;;;;;;12.79;27.19;100050.66;4835886;29;99842;-72
2022/03/31 11:22:09;;;;;;;11.68;4.80;;;;;;;11.84;27.92;100067.25;4833777;29;96853;-72
2022/03/31 11:24:36;;;;;;;10.23;5.20;;;;;;;11.26;29.18;100056.06;4833664;29;97319;-72
2022/03/31 11:27:06;;;;;;;12.43;4.82;;;;;;;10.56;30.05;100070.00;4830058;29;98395;-72
2022/03/31 11:29:45;;;;;;;10.75;4.70;;;;;;;11.72;28.95;100052.84;4834574;29;98138;-72
2022/03/31 11:32:13;;;;;;;11.20;5.13;;;;;;;12.45;27.94;100062.25;4834964;29;97241;-71
2022/03/31 11:34:51;;;;;;;14.23;4.57;;;;;;;12.13;28.34;100066.63;4836340;29;97481;-72
2022/03/31 11:37:25;;;;;;;9.82;4.10;;;;;;;12.55;27.20;100052.84;4833550;29;97960;-71
2022/03/31 11:40:00;;;;;;;13.93;4.75;;;;;;;11.58;28.83;100050.03;4835368;29;97730;-71
2022/03/31 11:42:26;;;;;;;17.35;4.75;;;;;;;11.34;29.24;100052.13;4830507;29;96820;-72